createdAt,value
2018-01-22T00:02:16.455Z,5.12
2018-01-22T00:04:44.780Z,5.14
2018-01-22T00:07:13.913Z,5.16
2018-01-22T00:09:42.391Z,5.16
2018-01-22T00:12:10.726Z,5.16
2018-01-22T00:14:39.220Z,5.14
2018-01-22T00:17:07.614Z,5.14
2018-01-22T00:19:36.136Z,5.12
2018-01-22T00:22:04.489Z,5.16
2018-01-22T00:24:33.250Z,5.17
2018-01-22T00:27:01.574Z,5.18
2018-01-22T00:29:29.862Z,5.16
2018-01-22T00:31:58.152Z,5.14
2018-01-22T00:34:26.524Z,5.13
2018-01-22T00:36:54.862Z,5.16
2018-01-22T00:39:23.156Z,5.21
2018-01-22T00:41:51.514Z,5.20
2018-01-22T00:44:20.640Z,5.19
2018-01-22T00:46:48.922Z,5.20
2018-01-22T00:49:17.246Z,5.21
2018-01-22T00:51:46.338Z,5.23
2018-01-22T00:54:14.626Z,5.23
2018-01-22T00:56:42.926Z,5.21
2018-01-22T00:59:11.892Z,5.21
2018-01-22T01:01:40.257Z,5.22
2018-01-22T01:04:08.580Z,5.23
2018-01-22T01:06:38.090Z,5.23
2018-01-22T01:09:07.196Z,5.24
2018-01-22T01:11:35.600Z,5.26
2018-01-22T01:14:03.908Z,5.27
2018-01-22T01:16:32.196Z,5.29
2018-01-22T01:19:00.494Z,5.31
2018-01-22T01:21:28.802Z,5.32
2018-01-22T01:23:57.868Z,5.33
2018-01-22T01:26:26.178Z,5.33
2018-01-22T01:28:54.484Z,5.34
2018-01-22T01:31:22.808Z,5.38
2018-01-22T01:33:51.130Z,5.43
2018-01-22T01:36:20.202Z,5.42
2018-01-22T01:38:48.527Z,5.43
2018-01-22T01:41:16.877Z,5.44
2018-01-22T01:43:45.204Z,5.48
2018-01-22T01:46:13.494Z,5.50
2018-01-22T01:49:08.590Z,5.51
2018-01-22T01:51:36.896Z,5.52
2018-01-22T01:54:05.271Z,5.51
2018-01-22T01:56:33.548Z,5.54
2018-01-22T01:59:01.862Z,5.55
2018-01-22T02:01:30.919Z,5.55
2018-01-22T02:03:59.954Z,5.55
2018-01-22T02:06:28.256Z,5.55
2018-01-22T02:08:56.558Z,5.52
2018-01-22T02:11:24.873Z,5.48
2018-01-22T02:13:53.194Z,5.51
2018-01-22T02:16:22.292Z,5.52
2018-01-22T02:18:51.350Z,5.52
2018-01-22T02:21:19.642Z,5.52
2018-01-22T02:23:47.946Z,5.53
2018-01-22T02:26:17.086Z,5.50
2018-01-22T02:28:45.382Z,5.53
2018-01-22T02:31:13.677Z,5.55
2018-01-22T02:33:41.967Z,5.57
2018-01-22T02:36:10.256Z,5.60
2018-01-22T02:38:38.564Z,5.61
2018-01-22T02:41:07.693Z,5.58
2018-01-22T02:43:36.079Z,5.58
2018-01-22T02:46:04.366Z,5.58
2018-01-22T02:48:32.665Z,5.60
2018-01-22T02:51:01.567Z,5.63
2018-01-22T02:53:29.877Z,5.63
2018-01-22T02:55:58.988Z,5.67
2018-01-22T02:58:28.086Z,5.70
2018-01-22T03:00:57.176Z,5.71
2018-01-22T03:03:26.350Z,5.72
2018-01-22T03:05:54.669Z,5.70
2018-01-22T03:08:23.724Z,5.72
2018-01-22T03:10:53.486Z,5.74
2018-01-22T03:13:21.784Z,5.73
2018-01-22T03:15:50.879Z,5.75
2018-01-22T03:18:19.213Z,5.76
2018-01-22T03:20:47.542Z,5.71
2018-01-22T03:23:15.867Z,5.70
2018-01-22T03:25:44.164Z,5.66
2018-01-22T03:28:12.495Z,5.63
2018-01-22T03:30:40.807Z,5.63
2018-01-22T03:33:09.394Z,5.63
2018-01-22T03:35:37.704Z,5.57
2018-01-22T03:38:06.122Z,5.56
2018-01-22T03:40:34.420Z,5.57
2018-01-22T03:43:03.520Z,5.59
2018-01-22T03:45:31.830Z,5.56
2018-01-22T03:48:00.177Z,5.61
2018-01-22T03:50:28.513Z,5.60
2018-01-22T03:52:56.882Z,5.61
2018-01-22T03:55:25.196Z,5.66
2018-01-22T03:57:53.572Z,5.67
2018-01-22T04:00:22.630Z,5.69
2018-01-22T04:02:50.946Z,5.70
2018-01-22T04:05:20.032Z,5.70
2018-01-22T04:07:48.348Z,5.73
2018-01-22T04:10:16.650Z,5.77
2018-01-22T04:12:44.966Z,5.78
2018-01-22T04:15:13.618Z,5.81
2018-01-22T04:17:41.910Z,5.83
2018-01-22T04:20:10.212Z,5.84
2018-01-22T04:22:38.516Z,5.90
2018-01-22T04:25:06.838Z,5.93
2018-01-22T04:27:35.143Z,5.98
2018-01-22T04:30:03.470Z,6.00
2018-01-22T04:32:31.796Z,6.03
2018-01-22T04:35:00.106Z,6.05
2018-01-22T04:37:28.464Z,6.07
2018-01-22T04:39:57.596Z,6.04
2018-01-22T04:42:25.892Z,6.05
2018-01-22T04:44:54.203Z,6.03
2018-01-22T04:47:22.514Z,6.07
2018-01-22T04:49:50.870Z,6.13
2018-01-22T04:52:19.195Z,6.17
2018-01-22T04:54:47.544Z,6.20
2018-01-22T04:57:16.627Z,6.26
2018-01-22T04:59:44.932Z,6.28
2018-01-22T05:02:13.278Z,6.32
2018-01-22T05:04:42.400Z,6.34
2018-01-22T05:07:10.724Z,6.39
2018-01-22T05:09:39.804Z,6.43
2018-01-22T05:12:08.111Z,6.50
2018-01-22T05:14:36.424Z,6.54
2018-01-22T05:17:05.566Z,6.63
2018-01-22T05:19:33.922Z,6.70
2018-01-22T05:22:02.234Z,6.75
2018-01-22T05:24:31.085Z,6.80
2018-01-22T05:27:00.191Z,6.86
2018-01-22T05:29:28.526Z,6.91
2018-01-22T05:31:56.885Z,6.97
2018-01-22T05:34:25.459Z,7.03
2018-01-22T05:36:53.746Z,7.08
2018-01-22T05:39:22.130Z,7.14
2018-01-22T05:41:50.947Z,7.20
2018-01-22T05:44:19.238Z,7.26
2018-01-22T05:46:47.557Z,7.35
2018-01-22T05:49:17.486Z,7.42
2018-01-22T05:51:46.144Z,7.47
2018-01-22T05:54:14.438Z,7.54
2018-01-22T05:56:44.135Z,7.61
2018-01-22T05:59:12.448Z,7.66
2018-01-22T06:01:40.810Z,7.73
2018-01-22T06:04:09.964Z,7.79
2018-01-22T06:06:38.266Z,7.84
2018-01-22T06:09:06.600Z,7.88
2018-01-22T06:11:35.867Z,7.93
2018-01-22T06:14:04.186Z,7.99
2018-01-22T06:16:32.487Z,8.04
2018-01-22T06:19:01.042Z,8.07
2018-01-22T06:21:29.357Z,8.11
2018-01-22T06:23:57.722Z,8.15
2018-01-22T06:26:26.055Z,8.18
2018-01-22T06:28:54.424Z,8.22
2018-01-22T06:31:22.733Z,8.26
2018-01-22T06:33:51.064Z,8.31
2018-01-22T06:36:19.363Z,8.34
2018-01-22T06:38:47.676Z,8.38
2018-01-22T06:41:15.990Z,8.44
2018-01-22T06:43:45.250Z,8.48
2018-01-22T06:46:13.594Z,8.53
2018-01-22T06:48:42.508Z,8.56
2018-01-22T06:51:10.853Z,8.60
2018-01-22T06:53:39.167Z,8.64
2018-01-22T06:56:07.713Z,8.67
2018-01-22T06:58:36.790Z,8.70
2018-01-22T07:01:05.937Z,8.73
2018-01-22T07:03:34.479Z,8.75
2018-01-22T07:06:03.558Z,8.79
2018-01-22T07:08:31.879Z,8.82
2018-01-22T07:11:01.031Z,8.84
2018-01-22T07:13:29.327Z,8.87
2018-01-22T07:15:57.631Z,8.88
2018-01-22T07:18:27.269Z,8.91
2018-01-22T07:20:55.590Z,8.92
2018-01-22T07:23:23.895Z,8.93
2018-01-22T07:25:53.001Z,8.96
2018-01-22T07:28:21.382Z,8.95
2018-01-22T07:30:49.633Z,8.95
2018-01-22T07:33:17.932Z,8.97
2018-01-22T07:35:46.811Z,9.00
2018-01-22T07:38:15.196Z,9.01
2018-01-22T07:40:43.539Z,9.04
2018-01-22T07:43:11.903Z,9.05
2018-01-22T07:45:40.254Z,9.06
2018-01-22T07:48:08.592Z,9.08
2018-01-22T07:50:36.971Z,9.10
2018-01-22T07:53:05.764Z,9.10
2018-01-22T07:55:34.289Z,9.10
2018-01-22T07:58:03.016Z,9.12
2018-01-22T08:00:31.345Z,9.13
2018-01-22T08:02:59.725Z,9.14
2018-01-22T08:05:28.633Z,9.18
2018-01-22T08:07:57.713Z,9.22
2018-01-22T08:10:26.020Z,9.22
2018-01-22T08:12:56.070Z,9.24
2018-01-22T08:15:24.769Z,9.26
2018-01-22T08:17:54.198Z,9.26
2018-01-22T08:20:23.264Z,9.29
2018-01-22T08:22:51.549Z,9.31
2018-01-22T08:25:21.814Z,9.33
2018-01-22T08:27:50.495Z,9.35
2018-01-22T08:30:19.511Z,9.38
2018-01-22T08:32:48.559Z,9.37
2018-01-22T08:35:17.551Z,9.39
2018-01-22T08:37:46.291Z,9.42
2018-01-22T08:40:14.737Z,9.46
2018-01-22T08:42:43.885Z,9.47
2018-01-22T08:45:12.218Z,9.51
2018-01-22T08:47:41.282Z,9.57
2018-01-22T08:50:09.661Z,9.60
2018-01-22T08:52:37.985Z,9.65
2018-01-22T08:55:07.084Z,9.70
2018-01-22T08:57:36.162Z,9.72
2018-01-22T09:00:04.563Z,9.75
2018-01-22T09:02:33.629Z,9.79
2018-01-22T09:05:02.151Z,9.79
2018-01-22T09:07:31.221Z,9.78
2018-01-22T09:09:59.561Z,9.81
2018-01-22T09:12:27.881Z,9.83
2018-01-22T09:14:56.331Z,9.85
2018-01-22T09:17:25.264Z,9.84
2018-01-22T09:19:53.592Z,9.88
2018-01-22T09:22:24.033Z,9.89
2018-01-22T09:24:52.361Z,9.90
2018-01-22T09:27:20.653Z,9.93
2018-01-22T09:29:49.307Z,9.94
2018-01-22T09:32:17.663Z,9.96
2018-01-22T09:34:47.111Z,9.92
2018-01-22T09:37:15.487Z,9.90
2018-01-22T09:39:44.531Z,9.87
2018-01-22T09:42:15.021Z,9.83
2018-01-22T09:44:43.479Z,9.84
2018-01-22T09:47:13.264Z,9.89
2018-01-22T09:49:42.333Z,9.90
2018-01-22T09:52:12.242Z,9.97
2018-01-22T09:54:41.641Z,10.05
2018-01-22T09:57:09.978Z,10.15
2018-01-22T10:02:14.965Z,10.32
2018-01-22T10:04:45.080Z,10.38
2018-01-22T10:07:14.307Z,10.40
2018-01-22T10:09:44.189Z,10.44
2018-01-22T10:12:13.545Z,10.47
2018-01-22T10:14:42.660Z,10.51
2018-01-22T10:17:11.812Z,10.53
2018-01-22T10:19:40.250Z,10.53
2018-01-22T10:22:09.345Z,10.53
2018-01-22T10:24:37.752Z,10.51
2018-01-22T10:27:08.736Z,10.53
2018-01-22T10:29:37.061Z,10.61
2018-01-22T10:32:06.398Z,10.71
2018-01-22T10:34:34.801Z,10.79
2018-01-22T10:37:04.565Z,10.87
2018-01-22T10:39:33.709Z,10.97
2018-01-22T10:42:02.942Z,11.04
2018-01-22T10:44:31.390Z,11.06
2018-01-22T10:46:59.739Z,11.06
2018-01-22T10:49:29.275Z,11.06
2018-01-22T10:51:57.655Z,11.07
2018-01-22T10:54:25.993Z,11.15
2018-01-22T10:56:55.097Z,11.18
2018-01-22T10:59:23.482Z,11.26
2018-01-22T11:01:51.849Z,11.30
2018-01-22T11:04:20.161Z,11.29
2018-01-22T11:06:49.689Z,11.36
2018-01-22T11:09:18.016Z,11.36
2018-01-22T11:11:46.457Z,11.30
2018-01-22T11:14:14.941Z,11.30
2018-01-22T11:16:43.387Z,11.34
2018-01-22T11:19:13.393Z,11.34
2018-01-22T11:21:41.770Z,11.37
2018-01-22T11:24:10.117Z,11.41
2018-01-22T11:26:39.301Z,11.42
2018-01-22T11:29:08.113Z,11.40
2018-01-22T11:31:36.435Z,11.41
2018-01-22T11:34:04.773Z,11.38
2018-01-22T11:36:33.262Z,11.37
2018-01-22T11:39:01.592Z,11.42
2018-01-22T11:41:31.497Z,11.45
2018-01-22T11:44:01.549Z,11.49
2018-01-22T11:46:32.991Z,11.49
2018-01-22T11:49:01.613Z,11.48
2018-01-22T11:51:30.005Z,11.51
2018-01-22T11:53:59.118Z,11.56
2018-01-22T11:56:28.399Z,11.55
2018-01-22T11:58:56.740Z,11.52
2018-01-22T12:01:25.086Z,11.50
2018-01-22T12:03:53.700Z,11.49
2018-01-22T12:06:22.334Z,11.49
2018-01-22T12:08:53.496Z,11.48
2018-01-22T12:11:22.261Z,11.51
2018-01-22T12:13:51.386Z,11.51
2018-01-22T12:16:20.445Z,11.51
2018-01-22T12:18:49.585Z,11.52
2018-01-22T12:21:17.948Z,11.53
2018-01-22T12:23:48.014Z,11.51
2018-01-22T12:26:17.124Z,11.48
2018-01-22T12:28:46.973Z,11.44
2018-01-22T12:31:16.024Z,11.38
2018-01-22T12:33:44.358Z,11.38
2018-01-22T12:36:12.751Z,11.42
2018-01-22T12:38:41.085Z,11.48
2018-01-22T12:41:10.274Z,11.54
2018-01-22T12:43:38.683Z,11.58
2018-01-22T12:46:07.752Z,11.59
2018-01-22T12:48:36.076Z,11.57
2018-01-22T12:51:04.440Z,11.55
2018-01-22T12:53:32.758Z,11.53
2018-01-22T12:56:01.884Z,11.52
2018-01-22T12:58:30.206Z,11.50
2018-01-22T13:00:59.355Z,11.47
2018-01-22T13:03:27.688Z,11.44
2018-01-22T13:05:56.037Z,11.45
2018-01-22T13:08:24.422Z,11.42
2018-01-22T13:10:52.758Z,11.38
2018-01-22T13:13:21.092Z,11.39
2018-01-22T13:15:49.456Z,11.38
2018-01-22T13:18:17.978Z,11.38
2018-01-22T13:20:46.302Z,11.37
2018-01-22T13:23:15.392Z,11.38
2018-01-22T13:25:43.812Z,11.38
2018-01-22T13:28:12.140Z,11.40
2018-01-22T13:30:40.786Z,11.39
2018-01-22T13:33:09.096Z,11.34
2018-01-22T13:35:37.406Z,11.32
2018-01-22T13:38:06.377Z,11.31
2018-01-22T13:40:40.943Z,11.31
2018-01-22T13:43:09.271Z,11.28
2018-01-22T13:45:38.396Z,11.25
2018-01-22T13:48:06.955Z,11.27
2018-01-22T13:50:35.314Z,11.25
2018-01-22T13:53:03.738Z,11.21
2018-01-22T13:55:32.078Z,11.20
2018-01-22T13:58:01.251Z,11.18
2018-01-22T14:00:31.955Z,11.22
2018-01-22T14:03:00.260Z,11.19
2018-01-22T14:05:29.042Z,11.17
2018-01-22T14:07:57.662Z,11.15
2018-01-22T14:10:26.744Z,11.13
2018-01-22T14:12:55.066Z,11.11
2018-01-22T14:15:23.718Z,11.07
2018-01-22T14:17:52.102Z,11.05
2018-01-22T14:20:21.240Z,11.03
2018-01-22T14:22:49.574Z,11.00
2018-01-22T14:25:17.902Z,10.96
2018-01-22T14:27:46.230Z,10.90
2018-01-22T14:30:14.530Z,10.89
2018-01-22T14:32:46.191Z,10.88
2018-01-22T14:35:17.037Z,10.88
2018-01-22T14:37:46.096Z,10.84
2018-01-22T14:40:14.418Z,10.79
2018-01-22T14:42:43.482Z,10.76
2018-01-22T14:45:12.133Z,10.71
2018-01-22T14:47:40.450Z,10.68
2018-01-22T14:50:09.517Z,10.66
2018-01-22T14:52:38.031Z,10.63
2018-01-22T14:55:06.366Z,10.59
2018-01-22T14:57:35.862Z,10.53
2018-01-22T15:00:04.932Z,10.48
2018-01-22T15:02:33.590Z,10.47
2018-01-22T15:05:01.940Z,10.44
2018-01-22T15:07:30.280Z,10.39
2018-01-22T15:09:58.607Z,10.37
2018-01-22T15:12:27.682Z,10.37
2018-01-22T15:14:56.164Z,10.36
2018-01-22T15:17:24.626Z,10.37
2018-01-22T15:19:53.838Z,10.34
2018-01-22T15:22:23.606Z,10.35
2018-01-22T15:24:52.036Z,10.36
2018-01-22T15:27:21.115Z,10.32
2018-01-22T15:29:50.312Z,10.27
2018-01-22T15:32:18.615Z,10.25
2018-01-22T15:34:46.970Z,10.23
2018-01-22T15:37:15.280Z,10.20
2018-01-22T15:39:43.734Z,10.18
2018-01-22T15:42:12.413Z,10.16
2018-01-22T15:44:41.674Z,10.16
2018-01-22T15:47:10.023Z,10.14
2018-01-22T15:49:38.408Z,10.13
2018-01-22T15:52:07.594Z,10.10
2018-01-22T15:54:36.168Z,10.10
2018-01-22T15:57:05.778Z,10.08
2018-01-22T15:59:34.209Z,10.05
2018-01-22T16:02:02.728Z,10.01
2018-01-22T16:04:31.822Z,9.93
2018-01-22T16:07:00.123Z,9.87
2018-01-22T16:09:29.744Z,9.84
2018-01-22T16:11:58.318Z,9.82
2018-01-22T16:14:27.403Z,9.78
2018-01-22T16:16:55.722Z,9.77
2018-01-22T16:19:24.033Z,9.73
2018-01-22T16:21:53.308Z,9.71
2018-01-22T16:24:21.624Z,9.66
2018-01-22T16:26:49.947Z,9.61
2018-01-22T16:29:19.043Z,9.60
2018-01-22T16:31:48.930Z,9.58
2018-01-22T16:34:17.330Z,9.57
2018-01-22T16:36:46.060Z,9.55
2018-01-22T16:39:14.410Z,9.56
2018-01-22T16:41:43.543Z,9.59
2018-01-22T16:44:12.240Z,9.62
2018-01-22T16:46:41.026Z,9.62
2018-01-22T16:49:10.070Z,9.63
2018-01-22T16:51:38.814Z,9.62
2018-01-22T16:54:07.122Z,9.62
2018-01-22T16:56:35.436Z,9.63
2018-01-22T16:59:03.758Z,9.62
2018-01-22T17:01:32.152Z,9.61
2018-01-22T17:04:00.444Z,9.67
2018-01-22T17:06:28.752Z,9.76
2018-01-22T17:08:57.076Z,9.82
2018-01-22T17:11:25.393Z,9.83
2018-01-22T17:13:53.684Z,9.86
2018-01-22T17:16:22.031Z,9.90
2018-01-22T17:18:50.332Z,9.92
2018-01-22T17:21:18.634Z,9.95
2018-01-22T17:23:47.029Z,9.98
2018-01-22T17:26:15.560Z,9.96
2018-01-22T17:28:43.869Z,9.85
2018-01-22T17:31:12.270Z,9.77
2018-01-22T17:33:40.745Z,9.72
2018-01-22T17:36:09.039Z,9.64
2018-01-22T17:38:37.530Z,9.56
2018-01-22T17:41:06.070Z,9.52
2018-01-22T17:43:37.611Z,9.48
2018-01-22T17:46:06.691Z,9.48
2018-01-22T17:48:35.888Z,9.47
2018-01-22T17:51:05.026Z,9.45
2018-01-22T17:53:33.372Z,9.45
2018-01-22T17:56:02.566Z,9.43
2018-01-22T17:58:31.657Z,9.46
2018-01-22T18:01:00.370Z,9.46
2018-01-22T18:03:29.816Z,9.49
2018-01-22T18:05:59.962Z,9.53
2018-01-22T18:08:29.987Z,9.63
2018-01-22T18:10:58.379Z,9.62
2018-01-22T18:13:26.840Z,9.60
2018-01-22T18:15:55.171Z,9.56
2018-01-22T18:18:23.537Z,9.54
2018-01-22T18:20:51.907Z,9.56
2018-01-22T18:23:21.502Z,9.54
2018-01-22T18:25:49.834Z,9.55
2018-01-22T18:28:18.939Z,9.56
2018-01-22T18:30:48.047Z,9.59
2018-01-22T18:33:16.382Z,9.58
2018-01-22T18:35:45.543Z,9.58
2018-01-22T18:38:13.893Z,9.56
2018-01-22T18:40:43.030Z,9.56
2018-01-22T18:43:11.413Z,9.56
2018-01-22T18:45:39.834Z,9.53
2018-01-22T18:48:09.040Z,9.48
2018-01-22T18:50:37.375Z,9.44
2018-01-22T18:53:05.705Z,9.42
2018-01-22T18:55:34.824Z,9.39
2018-01-22T18:58:03.141Z,9.36
2018-01-22T19:00:31.550Z,9.31
2018-01-22T19:03:01.537Z,9.27
2018-01-22T19:05:29.850Z,9.24
2018-01-22T19:07:58.242Z,9.25
2018-01-22T19:10:26.599Z,9.29
2018-01-22T19:12:55.005Z,9.35
2018-01-22T19:15:23.332Z,9.40
2018-01-22T19:17:52.441Z,9.43
2018-01-22T19:20:21.515Z,9.45
2018-01-22T19:22:49.860Z,9.49
2018-01-22T19:25:18.182Z,9.55
2018-01-22T19:27:47.275Z,9.55
2018-01-22T19:30:15.667Z,9.55
2018-01-22T19:32:44.293Z,9.65
2018-01-22T19:35:12.625Z,9.72
2018-01-22T19:37:40.942Z,9.77
2018-01-22T19:40:10.290Z,9.76
2018-01-22T19:42:38.595Z,9.68
2018-01-22T19:45:09.357Z,9.62
2018-01-22T19:47:37.708Z,9.59
2018-01-22T19:50:06.041Z,9.54
2018-01-22T19:52:34.423Z,9.56
2018-01-22T19:55:02.734Z,9.60
2018-01-22T19:57:31.819Z,9.63
2018-01-22T20:00:00.134Z,9.68
2018-01-22T20:02:28.478Z,9.71
2018-01-22T20:04:57.623Z,9.74
2018-01-22T20:07:25.986Z,9.76
2018-01-22T20:09:54.375Z,9.81
2018-01-22T20:12:22.684Z,9.83
2018-01-22T20:14:50.993Z,9.82
2018-01-22T20:17:19.312Z,9.86
2018-01-22T20:19:47.598Z,9.85
2018-01-22T20:22:15.905Z,9.85
2018-01-22T20:24:44.992Z,9.85
2018-01-22T20:27:13.281Z,9.85
2018-01-22T20:29:41.578Z,9.85
2018-01-22T20:32:10.677Z,9.87
2018-01-22T20:34:39.804Z,9.87
2018-01-22T20:37:08.103Z,9.89
2018-01-22T20:39:36.402Z,9.90
2018-01-22T20:42:04.709Z,9.92
2018-01-22T20:44:33.795Z,9.92
2018-01-22T20:47:02.107Z,9.92
2018-01-22T20:49:31.186Z,9.94
2018-01-22T20:51:59.496Z,9.92
2018-01-22T20:54:28.169Z,9.90
2018-01-22T20:56:56.486Z,9.87
2018-01-22T20:59:24.781Z,9.83
2018-01-22T21:01:53.084Z,9.78
2018-01-22T21:04:21.381Z,9.76
2018-01-22T21:06:49.673Z,9.74
2018-01-22T21:09:17.963Z,9.71
2018-01-22T21:11:47.061Z,9.70
2018-01-22T21:14:16.111Z,9.66
2018-01-22T21:16:44.416Z,9.62
2018-01-22T21:19:12.731Z,9.58
2018-01-22T21:21:41.782Z,9.57
2018-01-22T21:24:10.103Z,9.53
2018-01-22T21:26:39.157Z,9.54
2018-01-22T21:29:07.489Z,9.54
2018-01-22T21:31:36.539Z,9.52
2018-01-22T21:34:04.893Z,9.51
2018-01-22T21:36:33.375Z,9.50
2018-01-22T21:39:01.681Z,9.50
2018-01-22T21:41:31.061Z,9.52
2018-01-22T21:43:59.433Z,9.49
2018-01-22T21:46:28.489Z,9.46
2018-01-22T21:48:56.791Z,9.42
2018-01-22T21:51:25.092Z,9.38
2018-01-22T21:53:54.207Z,9.38
2018-01-22T21:56:22.519Z,9.40
2018-01-22T21:58:50.835Z,9.45
2018-01-22T22:01:19.155Z,9.51
2018-01-22T22:03:47.469Z,9.58
2018-01-22T22:06:15.761Z,9.61
2018-01-22T22:08:45.566Z,9.63
2018-01-22T22:11:14.305Z,9.66
2018-01-22T22:13:43.383Z,9.69
2018-01-22T22:16:11.739Z,9.70
2018-01-22T22:18:40.053Z,9.73
2018-01-22T22:21:08.357Z,9.74
2018-01-22T22:23:36.666Z,9.74
2018-01-22T22:26:05.031Z,9.75
2018-01-22T22:28:33.342Z,9.76
2018-01-22T22:31:01.640Z,9.75
2018-01-22T22:33:29.955Z,9.74
2018-01-22T22:35:59.077Z,9.71
2018-01-22T22:38:28.317Z,9.67
2018-01-22T22:40:56.631Z,9.58
2018-01-22T22:43:25.753Z,9.51
2018-01-22T22:45:54.123Z,9.47
2018-01-22T22:48:23.184Z,9.44
2018-01-22T22:50:51.485Z,9.40
2018-01-22T22:53:19.785Z,9.37
2018-01-22T22:55:48.941Z,9.34
2018-01-22T22:58:17.250Z,9.33
2018-01-22T23:00:45.556Z,9.33
2018-01-22T23:03:14.666Z,9.33
2018-01-22T23:05:43.051Z,9.33
2018-01-22T23:08:11.363Z,9.31
2018-01-22T23:10:39.673Z,9.28
2018-01-22T23:13:07.970Z,9.26
2018-01-22T23:15:37.770Z,9.24
2018-01-22T23:18:06.140Z,9.21
2018-01-22T23:20:35.090Z,9.19
2018-01-22T23:23:03.384Z,9.16
2018-01-22T23:25:31.678Z,9.15
2018-01-22T23:27:59.977Z,9.12
2018-01-22T23:30:28.455Z,9.12
2018-01-22T23:32:57.786Z,9.11
2018-01-22T23:35:26.088Z,9.11
2018-01-22T23:37:55.549Z,9.11
2018-01-22T23:40:23.860Z,9.12
2018-01-22T23:42:52.932Z,9.13
2018-01-22T23:45:21.604Z,9.12
2018-01-22T23:47:49.906Z,9.16
2018-01-22T23:50:18.210Z,9.18
2018-01-22T23:52:47.279Z,9.23
2018-01-22T23:55:16.428Z,9.26
2018-01-22T23:57:45.544Z,9.29
